Time;durP1;ratioP1;P1;durP2;ratioP2;P2;SDS_P1;SDS_P2;PMS_P1;PMS_P2;Temp;Humidity;BMP_temperature;BMP_pressure;BME280_temperature;BME280_humidity;BME280_pressure;Samples;Min_cycle;Max_cycle;Signal;HPM_P1;HPM_P2
2022/09/12 00:04:01;;;;;;;39.47;24.77;;;12.00;99.90;;;;;;7363058;32;20107;-59
2022/09/12 00:08:03;;;;;;;41.78;26.52;;;11.90;99.90;;;;;;7370767;32;20224;-58
2022/09/12 00:12:05;;;;;;;41.03;25.98;;;11.90;99.90;;;;;;7357878;32;20095;-59
2022/09/12 00:16:13;;;;;;;40.45;25.08;;;11.90;99.90;;;;;;7363205;32;20098;-59
2022/09/12 00:20:15;;;;;;;36.03;22.90;;;11.90;99.90;;;;;;7356760;32;20346;-58
2022/09/12 00:24:17;;;;;;;40.12;23.65;;;11.80;99.90;;;;;;7361225;32;20100;-58
2022/09/12 00:28:19;;;;;;;36.40;22.87;;;11.70;99.90;;;;;;7369178;32;20133;-59
2022/09/12 00:32:20;;;;;;;41.10;23.60;;;11.80;99.90;;;;;;7364152;32;20099;-58
2022/09/12 00:36:24;;;;;;;36.63;22.95;;;11.60;99.90;;;;;;7367419;32;20136;-58
2022/09/12 00:40:27;;;;;;;38.25;22.95;;;11.60;99.90;;;;;;7369637;32;20118;-58
2022/09/12 00:44:28;;;;;;;39.33;22.42;;;11.60;99.90;;;;;;7365668;32;20111;-59
2022/09/12 00:48:35;;;;;;;39.70;22.85;;;11.50;99.90;;;;;;7362745;32;20125;-58
2022/09/12 00:52:51;;;;;;;38.90;23.00;;;11.50;99.90;;;;;;7361397;32;20114;-58
2022/09/12 00:56:56;;;;;;;41.05;24.45;;;11.50;99.90;;;;;;7366394;32;20190;-58
2022/09/12 01:00:58;;;;;;;37.47;24.48;;;11.50;99.90;;;;;;7369137;32;20210;-58
2022/09/12 01:05:00;;;;;;;36.05;23.30;;;11.50;99.90;;;;;;7364729;32;20202;-58
2022/09/12 01:09:03;;;;;;;36.80;21.62;;;11.50;99.90;;;;;;7361252;32;20095;-58
2022/09/12 01:13:08;;;;;;;33.75;21.92;;;11.40;99.90;;;;;;7362504;32;20117;-58
2022/09/12 01:17:13;;;;;;;31.37;21.37;;;11.40;99.90;;;;;;7361818;32;20121;-59
2022/09/12 01:21:33;;;;;;;35.65;21.67;;;11.30;99.90;;;;;;7358128;32;20111;-59
2022/09/12 01:26:03;;;;;;;37.55;21.60;;;11.30;99.90;;;;;;7366058;32;20534;-59
2022/09/12 01:30:26;;;;;;;33.78;21.50;;;11.20;99.90;;;;;;7367667;32;20472;-59
2022/09/12 01:34:45;;;;;;;34.72;21.67;;;11.20;99.90;;;;;;7360699;32;20230;-59
2022/09/12 01:38:53;;;;;;;34.20;20.65;;;11.20;99.90;;;;;;7359549;32;20464;-59
2022/09/12 01:43:34;;;;;;;32.85;21.35;;;11.10;99.90;;;;;;7366276;32;20237;-58
2022/09/12 01:47:59;;;;;;;31.10;20.48;;;11.10;99.90;;;;;;7364696;32;20559;-58
2022/09/12 01:52:14;;;;;;;29.20;19.02;;;11.00;99.90;;;;;;7362200;32;20092;-58
2022/09/12 01:56:28;;;;;;;37.15;22.42;;;11.00;99.90;;;;;;7367969;32;20121;-58
2022/09/12 02:00:42;;;;;;;33.55;20.77;;;11.00;99.90;;;;;;7367474;32;20530;-58
2022/09/12 02:04:56;;;;;;;28.45;18.60;;;10.90;99.90;;;;;;7366748;32;20214;-58
2022/09/12 02:09:11;;;;;;;32.63;19.17;;;10.90;99.90;;;;;;7364990;32;20103;-58
2022/09/12 02:13:20;;;;;;;33.65;19.35;;;10.90;99.90;;;;;;7367807;32;20236;-58
2022/09/12 02:17:25;;;;;;;29.70;18.40;;;10.90;99.90;;;;;;7363371;32;20563;-58
2022/09/12 02:21:31;;;;;;;32.35;18.98;;;10.80;99.90;;;;;;7364690;32;20099;-58
2022/09/12 02:25:36;;;;;;;29.93;18.97;;;10.70;99.90;;;;;;7356390;32;20187;-57
2022/09/12 02:29:37;;;;;;;35.45;21.58;;;10.80;99.90;;;;;;7365099;32;20207;-58
2022/09/12 02:34:17;;;;;;;32.60;20.30;;;10.80;99.90;;;;;;7364958;32;20187;-58
2022/09/12 02:38:27;;;;;;;27.55;19.73;;;10.80;99.90;;;;;;7367292;32;20690;-58
2022/09/12 02:42:28;;;;;;;35.17;20.45;;;10.80;99.90;;;;;;7365943;32;20122;-58
2022/09/12 02:46:38;;;;;;;31.73;19.20;;;10.80;99.90;;;;;;7369301;32;20241;-58
2022/09/12 02:50:40;;;;;;;31.02;19.35;;;10.90;99.90;;;;;;7365827;32;20125;-59
2022/09/12 02:54:43;;;;;;;30.50;18.35;;;10.90;99.90;;;;;;7365729;32;20099;-59
2022/09/12 02:58:46;;;;;;;30.55;18.73;;;10.90;99.90;;;;;;7364749;32;20220;-58
2022/09/12 03:03:07;;;;;;;32.00;19.83;;;10.90;99.90;;;;;;7370403;32;20098;-59
2022/09/12 03:07:33;;;;;;;29.60;17.75;;;10.80;99.90;;;;;;7362502;32;20130;-59
2022/09/12 03:11:37;;;;;;;28.60;17.73;;;10.90;99.90;;;;;;7363731;32;20514;-58
2022/09/12 03:15:50;;;;;;;27.62;18.80;;;10.90;99.90;;;;;;7366560;32;20118;-59
2022/09/12 03:20:02;;;;;;;27.27;17.80;;;10.90;99.90;;;;;;7366174;32;20107;-58
2022/09/12 03:24:15;;;;;;;27.30;17.12;;;10.80;99.90;;;;;;7366533;32;20221;-58
2022/09/12 03:28:18;;;;;;;28.87;19.17;;;10.80;99.90;;;;;;7366694;32;20111;-58
2022/09/12 03:32:41;;;;;;;30.20;18.05;;;10.80;99.90;;;;;;7366255;32;20715;-58
2022/09/12 03:36:42;;;;;;;30.37;18.65;;;10.80;99.90;;;;;;7366881;32;20217;-58
2022/09/12 03:40:45;;;;;;;29.48;17.55;;;10.90;99.90;;;;;;7372057;32;20575;-58
2022/09/12 03:44:49;;;;;;;25.90;17.42;;;10.80;99.90;;;;;;7366105;32;20111;-58
2022/09/12 03:48:51;;;;;;;26.02;17.10;;;10.70;99.90;;;;;;7363816;32;20119;-59
2022/09/12 03:52:53;;;;;;;29.92;17.02;;;10.80;99.90;;;;;;7365563;32;20243;-59
2022/09/12 03:56:54;;;;;;;28.05;17.17;;;10.80;99.90;;;;;;7363082;32;20249;-58
2022/09/12 04:00:56;;;;;;;25.23;17.05;;;10.80;99.90;;;;;;7360255;32;20342;-58
2022/09/12 04:04:58;;;;;;;26.15;16.17;;;10.80;99.90;;;;;;7367451;32;20182;-58
2022/09/12 04:09:00;;;;;;;27.20;16.00;;;10.70;99.90;;;;;;7369218;32;20643;-59
2022/09/12 04:13:02;;;;;;;26.30;16.50;;;10.70;99.90;;;;;;7365221;32;20178;-58
2022/09/12 04:17:03;;;;;;;23.45;16.00;;;10.70;99.90;;;;;;7366785;32;20191;-58
2022/09/12 04:21:11;;;;;;;26.42;15.70;;;10.70;99.90;;;;;;7360894;32;20118;-58
2022/09/12 04:25:13;;;;;;;22.23;15.60;;;10.70;99.90;;;;;;7369079;32;20107;-59
2022/09/12 04:29:15;;;;;;;23.08;15.23;;;10.60;99.90;;;;;;7362748;32;20192;-58
2022/09/12 04:33:17;;;;;;;24.90;15.10;;;10.60;99.90;;;;;;7370393;32;20135;-59
2022/09/12 04:37:19;;;;;;;22.65;15.02;;;10.60;99.90;;;;;;7365144;32;20126;-58
2022/09/12 04:41:22;;;;;;;26.05;15.50;;;10.50;99.90;;;;;;7367492;32;20538;-58
2022/09/12 04:45:24;;;;;;;23.35;15.90;;;10.60;99.90;;;;;;7359577;32;20970;-59
2022/09/12 04:49:26;;;;;;;23.17;14.90;;;10.60;99.90;;;;;;7359855;32;20590;-59
2022/09/12 04:53:28;;;;;;;26.92;16.17;;;10.50;99.90;;;;;;7366614;32;20125;-59
2022/09/12 04:57:29;;;;;;;20.95;14.27;;;10.60;99.90;;;;;;7369067;32;20122;-59
2022/09/12 05:01:31;;;;;;;23.12;14.13;;;10.60;99.90;;;;;;7361305;32;20140;-60
2022/09/12 05:05:34;;;;;;;41.47;27.83;;;10.70;99.90;;;;;;7359037;32;20281;-65
2022/09/12 05:09:36;;;;;;;28.12;15.65;;;10.70;99.90;;;;;;7368053;32;20094;-63
2022/09/12 05:13:38;;;;;;;22.92;14.30;;;10.80;99.90;;;;;;7363923;32;20563;-65
2022/09/12 05:17:40;;;;;;;25.77;14.93;;;10.80;99.90;;;;;;7364973;32;20111;-65
2022/09/12 05:21:42;;;;;;;23.73;15.52;;;10.80;99.90;;;;;;7365819;32;20519;-62
2022/09/12 05:25:56;;;;;;;24.20;15.25;;;10.80;99.90;;;;;;7353895;32;20226;-62
2022/09/12 05:29:58;;;;;;;26.55;15.30;;;10.90;99.90;;;;;;7368674;32;20508;-62
2022/09/12 05:33:59;;;;;;;24.98;15.07;;;10.90;99.90;;;;;;7363605;32;20131;-61
2022/09/12 05:38:01;;;;;;;32.55;19.80;;;11.00;99.90;;;;;;7363500;32;20633;-61
2022/09/12 05:42:03;;;;;;;30.27;17.83;;;11.00;99.90;;;;;;7370559;32;20107;-62
2022/09/12 05:46:14;;;;;;;23.58;15.93;;;11.10;99.90;;;;;;7374988;32;20208;-62
2022/09/12 05:50:16;;;;;;;26.10;15.00;;;11.20;99.90;;;;;;7375018;32;20209;-62
2022/09/12 05:54:20;;;;;;;19.98;13.40;;;11.30;99.90;;;;;;7371532;32;20095;-62
2022/09/12 05:58:21;;;;;;;21.30;14.50;;;11.50;99.90;;;;;;7371641;31;20129;-62
2022/09/12 06:02:23;;;;;;;28.30;16.48;;;11.60;99.90;;;;;;7377172;32;20707;-62
2022/09/12 06:06:27;;;;;;;41.85;27.15;;;11.70;99.90;;;;;;7378993;32;20123;-61
2022/09/12 06:10:29;;;;;;;32.15;16.92;;;11.90;99.90;;;;;;7375071;32;20104;-62
2022/09/12 06:14:31;;;;;;;22.87;16.17;;;12.10;99.90;;;;;;7375194;32;20103;-62
2022/09/12 06:18:35;;;;;;;21.15;14.50;;;12.30;99.90;;;;;;7378256;32;20198;-62
2022/09/12 06:22:36;;;;;;;24.42;15.32;;;12.50;99.90;;;;;;7379836;32;20474;-62
2022/09/12 06:26:38;;;;;;;19.70;14.75;;;12.70;99.90;;;;;;7377672;32;20479;-62
2022/09/12 06:30:39;;;;;;;18.73;14.70;;;12.90;99.90;;;;;;7373721;32;20175;-62
2022/09/12 06:34:41;;;;;;;22.48;15.38;;;13.10;99.90;;;;;;7371299;32;20125;-62
2022/09/12 06:38:45;;;;;;;21.00;13.00;;;13.40;99.90;;;;;;7375161;32;20122;-62
2022/09/12 06:42:47;;;;;;;19.30;13.00;;;13.60;99.90;;;;;;7371502;32;20153;-63
2022/09/12 06:46:49;;;;;;;20.37;14.23;;;13.90;99.90;;;;;;7368929;32;20103;-62
2022/09/12 06:50:57;;;;;;;19.70;13.20;;;14.10;99.90;;;;;;7377967;32;20099;-62
2022/09/12 06:54:59;;;;;;;18.20;12.68;;;14.30;99.90;;;;;;7368303;32;20213;-63
2022/09/12 06:59:01;;;;;;;16.23;11.52;;;14.60;99.90;;;;;;7373004;32;20129;-63
2022/09/12 07:03:02;;;;;;;14.90;11.85;;;14.80;99.90;;;;;;7372390;32;20124;-62
2022/09/12 07:07:04;;;;;;;17.27;10.70;;;15.00;99.90;;;;;;7360850;32;21079;-61
2022/09/12 07:11:14;;;;;;;14.02;10.25;;;15.20;99.90;;;;;;7373225;32;20099;-62
2022/09/12 07:15:16;;;;;;;14.10;10.05;;;15.40;99.90;;;;;;7365798;32;20592;-63
2022/09/12 07:19:18;;;;;;;13.30;10.38;;;15.60;99.90;;;;;;7366008;32;20102;-62
2022/09/12 07:23:20;;;;;;;13.73;11.20;;;15.80;99.90;;;;;;7363020;32;20816;-62
2022/09/12 07:27:22;;;;;;;15.95;11.38;;;15.90;99.90;;;;;;7367114;32;20218;-62
2022/09/12 07:31:25;;;;;;;13.68;10.68;;;16.00;99.90;;;;;;7365368;32;20512;-62
2022/09/12 07:35:30;;;;;;;14.45;10.90;;;16.20;99.90;;;;;;7360772;32;20133;-62
2022/09/12 07:39:32;;;;;;;14.82;10.63;;;16.20;99.90;;;;;;7368705;32;20555;-63
2022/09/12 07:43:34;;;;;;;19.05;11.68;;;16.30;99.90;;;;;;7367231;32;20194;-62
2022/09/12 07:47:36;;;;;;;14.52;10.50;;;16.40;99.90;;;;;;7358767;32;20100;-62
2022/09/12 07:51:38;;;;;;;14.27;11.10;;;16.50;99.90;;;;;;7362323;32;20122;-62
2022/09/12 07:55:39;;;;;;;12.85;9.65;;;16.60;99.90;;;;;;7362856;32;20471;-63
2022/09/12 07:59:41;;;;;;;14.75;11.10;;;16.80;99.90;;;;;;7364329;32;20788;-62
2022/09/12 08:03:58;;;;;;;12.13;10.13;;;17.00;99.90;;;;;;7363114;32;20099;-63
2022/09/12 08:08:00;;;;;;;13.20;10.40;;;17.10;99.90;;;;;;7363685;32;20107;-62
2022/09/12 08:12:01;;;;;;;14.63;11.10;;;17.20;99.90;;;;;;7362327;32;20251;-63
2022/09/12 08:16:10;;;;;;;13.77;10.10;;;17.30;99.90;;;;;;7360779;32;20229;-62
2022/09/12 08:20:12;;;;;;;14.87;10.55;;;17.30;99.90;;;;;;7371971;32;20134;-63
2022/09/12 08:24:14;;;;;;;14.80;10.00;;;17.40;99.90;;;;;;7360833;32;20641;-63
2022/09/12 08:28:16;;;;;;;18.95;10.88;;;17.50;99.90;;;;;;7369061;32;20100;-62
2022/09/12 08:32:18;;;;;;;14.18;10.02;;;17.50;99.90;;;;;;7363156;32;20103;-62
2022/09/12 08:36:23;;;;;;;12.15;9.30;;;17.60;99.90;;;;;;7368470;32;20103;-62
2022/09/12 08:40:24;;;;;;;11.68;8.77;;;17.70;99.90;;;;;;7373281;32;20219;-63
2022/09/12 08:45:05;;;;;;;14.65;10.27;;;17.90;99.90;;;;;;7361008;32;20605;-63
2022/09/12 08:49:12;;;;;;;11.75;9.50;;;18.00;99.90;;;;;;7368124;32;20554;-63
2022/09/12 08:53:18;;;;;;;;;;;18.30;99.90;;;;;;7364745;32;20206;-62
2022/09/12 08:57:19;;;;;;;11.88;8.43;;;18.60;99.90;;;;;;7367508;32;20382;-63
2022/09/12 09:01:41;;;;;;;10.70;8.32;;;18.90;99.90;;;;;;7360086;32;20130;-63
2022/09/12 09:06:23;;;;;;;11.57;8.45;;;19.10;99.90;;;;;;7372361;32;20652;-63
2022/09/12 09:10:58;;;;;;;10.65;7.57;;;19.30;99.90;;;;;;7348551;32;20201;-63
2022/09/12 09:15:10;;;;;;;9.40;7.85;;;19.20;99.90;;;;;;7375629;32;20102;-63
2022/09/12 09:19:31;;;;;;;11.18;8.25;;;19.30;99.90;;;;;;7366633;32;20111;-62
2022/09/12 09:23:39;;;;;;;10.27;7.32;;;19.30;99.90;;;;;;7368538;32;20103;-63
2022/09/12 09:28:05;;;;;;;9.90;7.40;;;19.50;99.90;;;;;;7363183;32;20099;-63
2022/09/12 09:32:17;;;;;;;10.02;6.82;;;19.80;99.90;;;;;;7357341;32;20123;-63
2022/09/12 09:36:41;;;;;;;7.70;5.97;;;20.50;99.90;;;;;;7361976;32;20118;-63
2022/09/12 09:41:05;;;;;;;6.62;5.45;;;21.30;99.90;;;;;;7366632;32;20107;-61
2022/09/12 09:45:15;;;;;;;9.52;5.55;;;22.50;99.90;;;;;;7357863;32;20134;-62
2022/09/12 09:49:17;;;;;;;7.05;4.93;;;23.20;99.90;;;;;;7360855;32;20125;-63
2022/09/12 09:53:25;;;;;;;8.70;4.93;;;23.70;99.90;;;;;;7362283;32;20129;-62
2022/09/12 09:57:33;;;;;;;6.28;4.43;;;24.30;99.90;;;;;;7363004;32;20100;-63
2022/09/12 10:01:35;;;;;;;4.95;3.97;;;25.20;99.90;;;;;;7363801;32;20201;-62
2022/09/12 10:05:46;;;;;;;5.70;4.32;;;25.80;99.90;;;;;;7363318;32;20122;-58
2022/09/12 10:10:09;;;;;;;5.45;3.20;;;26.00;99.90;;;;;;7357411;32;20225;-58
2022/09/12 10:14:36;;;;;;;8.45;3.55;;;26.10;99.90;;;;;;7366132;32;20126;-58
2022/09/12 10:18:41;;;;;;;4.80;3.95;;;25.80;99.90;;;;;;7361565;32;20118;-59
2022/09/12 10:22:46;;;;;;;5.05;3.70;;;25.70;99.90;;;;;;7370056;32;20102;-58
2022/09/12 10:27:04;;;;;;;7.85;3.87;;;25.80;99.90;;;;;;7366525;32;20104;-59
2022/09/12 10:31:07;;;;;;;5.55;3.12;;;25.70;99.90;;;;;;7365927;32;20130;-58
2022/09/12 10:35:22;;;;;;;3.47;3.17;;;25.90;99.90;;;;;;7368771;32;20096;-59
2022/09/12 10:39:25;;;;;;;4.37;3.25;;;26.00;99.90;;;;;;7365235;32;20197;-62
2022/09/12 10:43:32;;;;;;;4.35;2.90;;;25.70;99.90;;;;;;7366026;32;20099;-63
2022/09/12 10:47:35;;;;;;;6.43;3.03;;;25.40;99.90;;;;;;7367107;32;20202;-59
2022/09/12 10:51:37;;;;;;;5.60;2.28;;;25.00;99.90;;;;;;7363953;32;20126;-60
2022/09/12 10:55:44;;;;;;;4.18;2.80;;;24.50;99.90;;;;;;7364151;32;20099;-58
2022/09/12 10:59:49;;;;;;;;;;;24.20;99.90;;;;;;7366347;32;20202;-59
2022/09/12 11:03:56;;;;;;;4.22;2.60;;;24.10;99.90;;;;;;7367112;32;20539;-58
2022/09/12 11:08:10;;;;;;;3.17;2.40;;;24.00;99.90;;;;;;7370166;32;20229;-59
2022/09/12 11:12:31;;;;;;;2.78;2.30;;;24.00;99.90;;;;;;7369662;32;20455;-59
2022/09/12 11:16:38;;;;;;;5.50;2.20;;;24.00;99.90;;;;;;7361066;32;20774;-61
2022/09/12 11:21:02;;;;;;;3.80;1.92;;;24.00;99.90;;;;;;7365124;32;20186;-62
2022/09/12 11:25:21;;;;;;;2.70;1.90;;;24.00;99.90;;;;;;7364748;32;20099;-62
2022/09/12 11:29:32;;;;;;;2.65;2.00;;;23.90;99.90;;;;;;7360884;32;20123;-62
2022/09/12 11:33:37;;;;;;;3.60;2.08;;;24.10;99.90;;;;;;7365386;32;20201;-61
2022/09/12 11:38:12;;;;;;;3.55;2.10;;;24.10;99.90;;;;;;7373611;32;20109;-61
2022/09/12 11:42:27;;;;;;;2.37;2.17;;;24.10;99.90;;;;;;7371028;32;20107;-62
2022/09/12 11:46:38;;;;;;;2.80;2.05;;;24.10;99.90;;;;;;7360518;32;20130;-62
2022/09/12 11:50:40;;;;;;;2.12;1.80;;;24.20;99.90;;;;;;7374324;32;20103;-63
2022/09/12 11:54:44;;;;;;;2.85;1.80;;;24.30;99.90;;;;;;7361352;32;20107;-62
2022/09/12 11:58:58;;;;;;;2.03;1.80;;;24.30;99.90;;;;;;7370185;32;20111;-62
2022/09/12 12:03:12;;;;;;;2.08;1.50;;;24.10;99.90;;;;;;7363600;32;20753;-61
2022/09/12 12:07:14;;;;;;;2.00;1.50;;;24.30;99.90;;;;;;7361862;32;20103;-61
2022/09/12 12:11:42;;;;;;;2.45;1.70;;;24.50;99.90;;;;;;7365940;32;20118;-62
2022/09/12 12:16:24;;;;;;;7.85;2.05;;;24.60;99.90;;;;;;7368091;32;20126;-61
2022/09/12 12:20:27;;;;;;;3.22;1.77;;;24.70;99.90;;;;;;7295833;32;20126;-55
2022/09/12 12:24:29;;;;;;;3.53;2.00;;;24.80;99.90;;;;;;7368668;32;20497;-56
2022/09/12 12:28:49;;;;;;;3.80;1.90;;;24.60;99.90;;;;;;7358646;32;20099;-56
2022/09/12 12:32:50;;;;;;;4.47;1.98;;;24.60;99.90;;;;;;7364358;32;20096;-56
2022/09/12 12:36:52;;;;;;;2.20;1.90;;;24.70;99.90;;;;;;7367763;32;20094;-56
2022/09/12 12:41:17;;;;;;;2.97;1.85;;;24.60;99.90;;;;;;7365823;32;20103;-56
2022/09/12 12:45:24;;;;;;;2.83;2.05;;;24.80;99.90;;;;;;7361894;32;20095;-56
2022/09/12 12:49:27;;;;;;;2.17;1.92;;;24.90;99.90;;;;;;7371383;32;20103;-56
2022/09/12 12:53:29;;;;;;;3.30;1.80;;;24.80;99.90;;;;;;7359723;32;20290;-56
2022/09/12 12:57:51;;;;;;;11.32;2.50;;;24.80;99.90;;;;;;7359011;32;20088;-56
2022/09/12 13:01:57;;;;;;;2.42;1.70;;;24.70;99.90;;;;;;7363312;32;20099;-56
2022/09/12 13:06:04;;;;;;;2.63;1.77;;;24.80;99.90;;;;;;7362167;32;20114;-56
2022/09/12 13:10:07;;;;;;;3.80;2.08;;;24.80;99.90;;;;;;7360592;32;20115;-56
2022/09/12 13:14:35;;;;;;;2.85;2.30;;;24.90;99.90;;;;;;7363913;32;20099;-56
2022/09/12 13:18:44;;;;;;;2.70;2.00;;;25.00;99.90;;;;;;7367024;32;20102;-56
2022/09/12 13:22:49;;;;;;;2.50;2.03;;;25.20;99.90;;;;;;7365014;32;20114;-56
2022/09/12 13:26:52;;;;;;;2.55;2.00;;;25.10;99.90;;;;;;7368106;32;20530;-56
2022/09/12 13:31:12;;;;;;;4.07;1.98;;;25.20;99.90;;;;;;7368209;32;20123;-56
2022/09/12 13:35:56;;;;;;;2.30;1.83;;;25.00;99.90;;;;;;7364008;32;20104;-56
2022/09/12 13:40:29;;;;;;;3.60;2.78;;;25.00;99.90;;;;;;7364930;32;20137;-56
2022/09/12 13:44:57;;;;;;;5.28;1.90;;;25.10;99.90;;;;;;7363768;32;20216;-62
2022/09/12 13:49:04;;;;;;;2.70;2.00;;;25.00;99.90;;;;;;7366397;32;20099;-62
2022/09/12 13:53:14;;;;;;;2.08;1.67;;;24.90;99.90;;;;;;7361018;32;20153;-63
2022/09/12 13:57:32;;;;;;;4.57;1.80;;;24.80;99.90;;;;;;7367130;32;20121;-63
2022/09/12 14:01:39;;;;;;;5.72;2.17;;;24.80;99.90;;;;;;7367447;32;20191;-62
2022/09/12 14:05:45;;;;;;;2.58;2.22;;;24.80;99.90;;;;;;7363314;32;20118;-62
2022/09/12 14:09:55;;;;;;;4.03;2.70;;;24.60;99.90;;;;;;7366131;32;20638;-62
2022/09/12 14:13:57;;;;;;;5.03;2.12;;;24.60;99.90;;;;;;7367556;32;20123;-63
2022/09/12 14:18:02;;;;;;;2.40;2.20;;;24.60;99.90;;;;;;7372024;32;20174;-63
2022/09/12 14:22:03;;;;;;;2.40;1.90;;;24.70;99.90;;;;;;7363494;32;20117;-63
2022/09/12 14:26:10;;;;;;;3.78;2.33;;;24.70;99.90;;;;;;7368429;32;20240;-64
2022/09/12 14:30:23;;;;;;;2.53;2.10;;;24.80;99.90;;;;;;7366836;32;20241;-64
2022/09/12 14:34:25;;;;;;;2.25;1.58;;;24.70;99.90;;;;;;7361998;32;20182;-64
2022/09/12 14:38:41;;;;;;;2.70;1.55;;;25.00;99.40;;;;;;7365646;32;20111;-61
2022/09/12 14:42:43;;;;;;;3.42;1.62;;;25.00;99.30;;;;;;7365091;32;20143;-64
2022/09/12 14:46:46;;;;;;;3.87;1.45;;;24.90;98.60;;;;;;7364776;32;20178;-60
2022/09/12 14:50:50;;;;;;;3.20;1.52;;;24.80;99.60;;;;;;7364331;32;20108;-60
2022/09/12 14:55:19;;;;;;;3.10;1.80;;;24.60;98.50;;;;;;7360687;32;20126;-63
2022/09/12 14:59:34;;;;;;;2.22;1.50;;;24.50;98.60;;;;;;7366123;32;21365;-59
2022/09/12 15:03:56;;;;;;;2.55;1.75;;;24.40;99.90;;;;;;7361236;32;20183;-57
2022/09/12 15:07:59;;;;;;;1.65;1.55;;;24.30;99.90;;;;;;7376767;32;20157;-56
2022/09/12 15:12:01;;;;;;;1.73;1.40;;;24.40;99.90;;;;;;7362700;32;20122;-62
2022/09/12 15:16:03;;;;;;;2.22;1.60;;;24.30;99.90;;;;;;7373434;32;20149;-62
2022/09/12 15:20:06;;;;;;;2.00;1.58;;;24.10;99.90;;;;;;7364177;32;20258;-62
2022/09/12 15:24:08;;;;;;;2.33;1.62;;;24.10;99.90;;;;;;7362042;32;20096;-62
2022/09/12 15:28:16;;;;;;;1.87;1.40;;;24.10;99.70;;;;;;7366373;32;20146;-62
2022/09/12 15:32:25;;;;;;;2.20;1.45;;;24.10;98.70;;;;;;7360452;32;20104;-62
2022/09/12 15:36:27;;;;;;;2.72;1.52;;;23.80;99.90;;;;;;7365421;32;20095;-64
2022/09/12 15:40:37;;;;;;;1.73;1.62;;;23.80;99.90;;;;;;7368015;32;20096;-63
2022/09/12 15:44:39;;;;;;;1.85;1.60;;;23.80;99.90;;;;;;7368592;32;20209;-62
2022/09/12 15:48:41;;;;;;;2.58;1.75;;;23.70;99.90;;;;;;7367054;32;20118;-62
2022/09/12 15:52:43;;;;;;;2.42;1.80;;;23.50;99.90;;;;;;7367788;32;20129;-62
2022/09/12 15:56:44;;;;;;;3.80;2.45;;;23.40;99.90;;;;;;7361988;32;20126;-62
2022/09/12 16:00:46;;;;;;;2.62;2.42;;;23.20;99.90;;;;;;7365176;32;20198;-62
2022/09/12 16:04:48;;;;;;;3.03;2.08;;;23.20;99.90;;;;;;7374003;32;20136;-63
2022/09/12 16:08:50;;;;;;;3.05;1.98;;;23.00;99.90;;;;;;7360101;32;20536;-62
2022/09/12 16:12:51;;;;;;;5.30;1.98;;;22.90;99.90;;;;;;7362243;32;20142;-63
2022/09/12 16:16:53;;;;;;;4.00;2.00;;;22.90;99.90;;;;;;7363000;32;20119;-63
2022/09/12 16:20:57;;;;;;;3.37;2.22;;;23.00;99.90;;;;;;7366963;32;20213;-63
2022/09/12 16:24:58;;;;;;;3.62;2.28;;;22.90;99.90;;;;;;7364899;32;20130;-63
2022/09/12 16:29:00;;;;;;;2.45;1.95;;;22.80;99.90;;;;;;7366901;32;20179;-63
2022/09/12 16:33:02;;;;;;;2.85;2.10;;;22.70;99.90;;;;;;7363581;32;20095;-62
2022/09/12 16:37:04;;;;;;;3.05;2.30;;;22.80;99.90;;;;;;7371109;32;20102;-63
2022/09/12 16:41:06;;;;;;;2.70;2.03;;;22.70;99.90;;;;;;7356459;32;20182;-62
2022/09/12 16:45:08;;;;;;;2.75;2.10;;;22.60;99.90;;;;;;7363574;32;20316;-61
2022/09/12 16:49:10;;;;;;;4.70;2.40;;;22.60;99.90;;;;;;7370242;32;20106;-62
2022/09/12 16:53:12;;;;;;;4.90;1.62;;;22.50;99.90;;;;;;7362072;32;20118;-62
2022/09/12 16:57:14;;;;;;;3.67;1.95;;;22.40;99.90;;;;;;7361758;32;20103;-62
2022/09/12 17:01:18;;;;;;;3.75;1.80;;;22.50;99.90;;;;;;7364577;32;20203;-63
2022/09/12 17:05:19;;;;;;;3.85;1.95;;;22.30;99.90;;;;;;7364061;32;20202;-62
2022/09/12 17:09:21;;;;;;;2.85;1.75;;;22.20;99.90;;;;;;7366822;32;20184;-63
2022/09/12 17:13:23;;;;;;;3.62;1.70;;;22.10;99.90;;;;;;7366970;32;20738;-63
2022/09/12 17:17:41;;;;;;;2.40;1.73;;;22.00;99.90;;;;;;7361733;32;20087;-62
2022/09/12 17:21:46;;;;;;;4.95;1.95;;;21.80;99.90;;;;;;7380890;32;20114;-62
2022/09/12 17:25:49;;;;;;;6.15;1.70;;;21.80;99.90;;;;;;7369141;31;20129;-63
2022/09/12 17:29:51;;;;;;;2.28;1.95;;;21.60;99.90;;;;;;7372096;32;20194;-62
2022/09/12 17:33:57;;;;;;;4.45;2.45;;;21.50;99.90;;;;;;7364511;32;20095;-66
2022/09/12 17:37:58;;;;;;;3.50;3.20;;;21.30;99.90;;;;;;7373332;32;20605;-64
2022/09/12 17:42:00;;;;;;;3.95;2.78;;;21.10;99.90;;;;;;7369686;32;20137;-65
2022/09/12 17:46:05;;;;;;;3.92;2.70;;;20.90;99.90;;;;;;7374839;32;20255;-65
2022/09/12 17:50:07;;;;;;;6.10;3.30;;;20.60;99.90;;;;;;7370565;32;20108;-65
2022/09/12 17:54:29;;;;;;;5.82;3.37;;;20.20;99.90;;;;;;7379071;32;20233;-66
2022/09/12 17:58:32;;;;;;;6.05;3.22;;;20.00;99.90;;;;;;7375973;32;20107;-67
2022/09/12 18:02:34;;;;;;;6.85;3.35;;;19.60;99.90;;;;;;7377652;32;20653;-67
2022/09/12 18:06:36;;;;;;;7.28;3.30;;;19.30;99.90;;;;;;7374057;32;20235;-61
2022/09/12 18:10:38;;;;;;;7.00;4.10;;;19.10;99.90;;;;;;7376007;32;20174;-60
2022/09/12 18:14:40;;;;;;;14.73;6.75;;;18.90;99.90;;;;;;7370291;32;20104;-59
2022/09/12 18:18:42;;;;;;;6.82;3.72;;;18.70;99.90;;;;;;7367796;32;20202;-59
2022/09/12 18:22:48;;;;;;;10.38;3.65;;;18.50;99.90;;;;;;7364209;32;20130;-60
2022/09/12 18:26:50;;;;;;;5.35;3.85;;;18.40;99.90;;;;;;7380958;32;20626;-61
2022/09/12 18:30:51;;;;;;;10.07;4.53;;;18.10;99.90;;;;;;7366365;32;20120;-60
2022/09/12 18:34:53;;;;;;;7.78;3.97;;;18.00;99.90;;;;;;7369769;32;20178;-61
2022/09/12 18:38:58;;;;;;;7.90;4.25;;;17.80;99.90;;;;;;7365722;32;20099;-62
2022/09/12 18:43:00;;;;;;;7.87;4.43;;;17.70;99.90;;;;;;7375422;32;20757;-61
2022/09/12 18:47:03;;;;;;;8.93;5.05;;;17.60;99.90;;;;;;7368398;32;20115;-61
2022/09/12 18:51:13;;;;;;;9.90;4.55;;;17.40;99.90;;;;;;7365549;32;20146;-61
2022/09/12 18:55:15;;;;;;;11.68;3.92;;;17.30;99.90;;;;;;7366132;32;20154;-62
2022/09/12 18:59:16;;;;;;;11.02;4.65;;;17.20;99.90;;;;;;7370777;32;20554;-62
2022/09/12 19:03:18;;;;;;;8.25;4.70;;;17.00;99.90;;;;;;7368660;32;20110;-61
2022/09/12 19:07:20;;;;;;;8.88;4.30;;;16.90;99.90;;;;;;7370982;32;20126;-63
2022/09/12 19:11:23;;;;;;;4.72;4.30;;;16.80;99.90;;;;;;7364064;32;20135;-62
2022/09/12 19:15:24;;;;;;;7.57;6.62;;;16.70;99.90;;;;;;7364577;32;20222;-62
2022/09/12 19:19:26;;;;;;;6.05;4.22;;;16.70;99.90;;;;;;7367798;32;20658;-61
2022/09/12 19:23:31;;;;;;;6.85;4.15;;;16.60;99.90;;;;;;7373812;32;20103;-61
2022/09/12 19:27:33;;;;;;;8.52;4.53;;;16.60;99.90;;;;;;7363938;32;20108;-61
2022/09/12 19:31:34;;;;;;;6.87;4.25;;;16.60;99.90;;;;;;7367105;32;20098;-62
2022/09/12 19:35:36;;;;;;;8.45;4.70;;;16.50;99.90;;;;;;7367201;32;20964;-63
2022/09/12 19:39:38;;;;;;;7.28;3.92;;;16.50;99.90;;;;;;7368511;32;20513;-62
2022/09/12 19:43:39;;;;;;;8.15;4.43;;;16.50;99.90;;;;;;7364464;32;20443;-61
2022/09/12 19:47:41;;;;;;;7.97;4.60;;;16.40;99.90;;;;;;7363090;32;20104;-62
2022/09/12 19:51:43;;;;;;;7.55;4.30;;;16.40;99.90;;;;;;7372860;32;20527;-62
2022/09/12 19:55:45;;;;;;;10.30;4.95;;;16.40;99.90;;;;;;7363010;32;20241;-60
2022/09/12 19:59:47;;;;;;;5.22;4.70;;;16.40;99.90;;;;;;7364275;32;20212;-60
2022/09/12 20:03:51;;;;;;;6.47;4.60;;;16.40;99.90;;;;;;7366257;32;20228;-61
2022/09/12 20:07:53;;;;;;;5.82;4.40;;;16.40;99.90;;;;;;7362782;32;20099;-61
2022/09/12 20:11:54;;;;;;;5.35;4.22;;;16.50;99.90;;;;;;7364948;32;20190;-60
2022/09/12 20:16:03;;;;;;;6.12;4.25;;;16.50;99.90;;;;;;7364032;32;20495;-60
2022/09/12 20:20:08;;;;;;;4.95;4.07;;;16.60;99.90;;;;;;7362178;32;20141;-60
2022/09/12 20:24:12;;;;;;;5.12;3.47;;;16.70;99.90;;;;;;7373837;32;20110;-61
2022/09/12 20:28:14;;;;;;;4.90;3.78;;;16.70;99.90;;;;;;7359610;32;20137;-60
2022/09/12 20:32:17;;;;;;;5.93;3.70;;;16.80;99.90;;;;;;7373963;32;20095;-59
2022/09/12 20:36:20;;;;;;;5.78;3.67;;;16.90;99.90;;;;;;7360687;32;20194;-59
2022/09/12 20:40:21;;;;;;;7.60;3.47;;;17.00;99.90;;;;;;7366479;32;20129;-60
2022/09/12 20:44:23;;;;;;;4.35;3.10;;;17.10;99.90;;;;;;7367338;32;20182;-59
2022/09/12 20:48:25;;;;;;;4.07;3.00;;;17.20;99.90;;;;;;7362677;32;20126;-60
2022/09/12 20:52:26;;;;;;;4.68;2.83;;;17.30;99.90;;;;;;7356473;32;20174;-60
2022/09/12 20:56:30;;;;;;;6.30;2.80;;;17.40;99.90;;;;;;7365739;32;20549;-60
2022/09/12 21:00:32;;;;;;;3.20;2.30;;;17.60;99.90;;;;;;7361239;32;20121;-60
2022/09/12 21:04:33;;;;;;;2.17;1.90;;;17.60;99.90;;;;;;7364446;32;20202;-60
2022/09/12 21:08:36;;;;;;;6.60;2.80;;;17.60;99.90;;;;;;7360639;32;20193;-60
2022/09/12 21:12:38;;;;;;;3.03;2.67;;;17.80;99.90;;;;;;7362917;32;20133;-60